sensor_id;sensor_type;location;lat;lon;timestamp;P1;durP1;ratioP1;P2;durP2;ratioP2
40176;SDS011;31511;46.176;9.874;2024-03-08T00:01:40;12.13;;;6.03;;
40176;SDS011;31511;46.176;9.874;2024-03-08T00:04:24;13.25;;;5.93;;
40176;SDS011;31511;46.176;9.874;2024-03-08T00:09:54;10.93;;;6.43;;
40176;SDS011;31511;46.176;9.874;2024-03-08T00:15:25;9.00;;;4.55;;
40176;SDS011;31511;46.176;9.874;2024-03-08T00:23:40;12.90;;;6.45;;
40176;SDS011;31511;46.176;9.874;2024-03-08T00:26:25;13.82;;;6.78;;
40176;SDS011;31511;46.176;9.874;2024-03-08T00:31:54;13.27;;;7.63;;
40176;SDS011;31511;46.176;9.874;2024-03-08T00:37:23;11.82;;;5.90;;
40176;SDS011;31511;46.176;9.874;2024-03-08T00:40:11;11.57;;;6.53;;
40176;SDS011;31511;46.176;9.874;2024-03-08T00:42:56;13.45;;;7.53;;
40176;SDS011;31511;46.176;9.874;2024-03-08T00:51:11;13.32;;;5.75;;
40176;SDS011;31511;46.176;9.874;2024-03-08T00:53:56;9.60;;;6.03;;
40176;SDS011;31511;46.176;9.874;2024-03-08T00:59:25;11.02;;;6.78;;
40176;SDS011;31511;46.176;9.874;2024-03-08T01:04:55;10.45;;;7.47;;
40176;SDS011;31511;46.176;9.874;2024-03-08T01:10:24;12.30;;;7.95;;
40176;SDS011;31511;46.176;9.874;2024-03-08T01:13:08;20.00;;;7.47;;
40176;SDS011;31511;46.176;9.874;2024-03-08T01:15:53;14.23;;;9.02;;
40176;SDS011;31511;46.176;9.874;2024-03-08T01:18:38;12.43;;;7.45;;
40176;SDS011;31511;46.176;9.874;2024-03-08T01:24:07;12.90;;;6.85;;
40176;SDS011;31511;46.176;9.874;2024-03-08T01:26:52;14.27;;;7.38;;
40176;SDS011;31511;46.176;9.874;2024-03-08T01:29:37;17.77;;;7.57;;
40176;SDS011;31511;46.176;9.874;2024-03-08T01:32:22;11.52;;;6.22;;
40176;SDS011;31511;46.176;9.874;2024-03-08T01:35:07;20.38;;;7.90;;
40176;SDS011;31511;46.176;9.874;2024-03-08T01:37:53;13.77;;;6.95;;
40176;SDS011;31511;46.176;9.874;2024-03-08T01:40:37;13.75;;;7.60;;
40176;SDS011;31511;46.176;9.874;2024-03-08T01:43:25;11.18;;;6.40;;
40176;SDS011;31511;46.176;9.874;2024-03-08T01:46:12;11.70;;;7.03;;
40176;SDS011;31511;46.176;9.874;2024-03-08T01:49:00;16.13;;;7.72;;
40176;SDS011;31511;46.176;9.874;2024-03-08T01:51:44;16.75;;;9.00;;
40176;SDS011;31511;46.176;9.874;2024-03-08T01:54:29;20.38;;;9.57;;
40176;SDS011;31511;46.176;9.874;2024-03-08T01:57:14;16.88;;;9.82;;
40176;SDS011;31511;46.176;9.874;2024-03-08T02:00:00;17.55;;;9.02;;
40176;SDS011;31511;46.176;9.874;2024-03-08T02:02:47;16.95;;;9.93;;
40176;SDS011;31511;46.176;9.874;2024-03-08T02:05:34;20.08;;;10.80;;
40176;SDS011;31511;46.176;9.874;2024-03-08T02:08:19;16.02;;;9.40;;
40176;SDS011;31511;46.176;9.874;2024-03-08T02:11:06;15.02;;;8.25;;
40176;SDS011;31511;46.176;9.874;2024-03-08T02:13:51;15.52;;;8.82;;
40176;SDS011;31511;46.176;9.874;2024-03-08T02:19:20;14.80;;;9.10;;
40176;SDS011;31511;46.176;9.874;2024-03-08T02:22:05;13.07;;;8.13;;
40176;SDS011;31511;46.176;9.874;2024-03-08T02:24:50;17.30;;;7.95;;
40176;SDS011;31511;46.176;9.874;2024-03-08T02:30:19;12.70;;;8.48;;
40176;SDS011;31511;46.176;9.874;2024-03-08T02:35:49;14.63;;;9.43;;
40176;SDS011;31511;46.176;9.874;2024-03-08T02:38:37;14.70;;;9.45;;
40176;SDS011;31511;46.176;9.874;2024-03-08T02:41:21;11.10;;;7.63;;
40176;SDS011;31511;46.176;9.874;2024-03-08T02:44:06;13.77;;;8.18;;
40176;SDS011;31511;46.176;9.874;2024-03-08T02:46:50;12.90;;;9.05;;
40176;SDS011;31511;46.176;9.874;2024-03-08T02:52:20;14.05;;;8.45;;
40176;SDS011;31511;46.176;9.874;2024-03-08T02:55:05;15.88;;;9.50;;
40176;SDS011;31511;46.176;9.874;2024-03-08T02:57:50;16.38;;;8.77;;
40176;SDS011;31511;46.176;9.874;2024-03-08T03:00:38;16.52;;;9.57;;
40176;SDS011;31511;46.176;9.874;2024-03-08T03:03:24;12.90;;;8.40;;
40176;SDS011;31511;46.176;9.874;2024-03-08T03:06:10;17.48;;;9.23;;
40176;SDS011;31511;46.176;9.874;2024-03-08T03:08:55;11.38;;;8.20;;
40176;SDS011;31511;46.176;9.874;2024-03-08T03:11:43;12.45;;;9.13;;
40176;SDS011;31511;46.176;9.874;2024-03-08T03:14:28;15.48;;;8.10;;
40176;SDS011;31511;46.176;9.874;2024-03-08T03:17:12;11.98;;;7.95;;
40176;SDS011;31511;46.176;9.874;2024-03-08T03:22:42;17.73;;;8.93;;
40176;SDS011;31511;46.176;9.874;2024-03-08T03:25:30;15.23;;;9.32;;
40176;SDS011;31511;46.176;9.874;2024-03-08T03:28:19;16.77;;;9.15;;
40176;SDS011;31511;46.176;9.874;2024-03-08T03:31:06;14.05;;;8.88;;
40176;SDS011;31511;46.176;9.874;2024-03-08T03:33:51;14.85;;;9.00;;
40176;SDS011;31511;46.176;9.874;2024-03-08T03:36:35;11.63;;;8.07;;
40176;SDS011;31511;46.176;9.874;2024-03-08T03:39:22;14.60;;;9.52;;
40176;SDS011;31511;46.176;9.874;2024-03-08T03:42:07;17.05;;;10.25;;
40176;SDS011;31511;46.176;9.874;2024-03-08T03:47:36;17.73;;;9.10;;
40176;SDS011;31511;46.176;9.874;2024-03-08T03:50:22;14.90;;;9.75;;
40176;SDS011;31511;46.176;9.874;2024-03-08T03:53:07;16.55;;;8.57;;
40176;SDS011;31511;46.176;9.874;2024-03-08T03:55:52;16.38;;;9.25;;
40176;SDS011;31511;46.176;9.874;2024-03-08T04:01:21;20.20;;;12.73;;
40176;SDS011;31511;46.176;9.874;2024-03-08T04:04:06;15.45;;;10.00;;
40176;SDS011;31511;46.176;9.874;2024-03-08T04:09:35;13.13;;;9.15;;
40176;SDS011;31511;46.176;9.874;2024-03-08T04:12:20;17.50;;;9.98;;
40176;SDS011;31511;46.176;9.874;2024-03-08T04:17:50;16.23;;;8.93;;
40176;SDS011;31511;46.176;9.874;2024-03-08T04:20:36;18.02;;;10.40;;
40176;SDS011;31511;46.176;9.874;2024-03-08T04:23:20;15.15;;;11.07;;
40176;SDS011;31511;46.176;9.874;2024-03-08T04:26:05;16.98;;;9.80;;
40176;SDS011;31511;46.176;9.874;2024-03-08T04:28:50;19.52;;;10.07;;
40176;SDS011;31511;46.176;9.874;2024-03-08T04:31:35;19.15;;;10.48;;
40176;SDS011;31511;46.176;9.874;2024-03-08T04:34:21;16.05;;;11.00;;
40176;SDS011;31511;46.176;9.874;2024-03-08T04:39:50;18.80;;;10.60;;
40176;SDS011;31511;46.176;9.874;2024-03-08T04:42:35;16.23;;;9.13;;
40176;SDS011;31511;46.176;9.874;2024-03-08T04:45:21;18.52;;;9.75;;
40176;SDS011;31511;46.176;9.874;2024-03-08T04:48:06;13.52;;;8.57;;
40176;SDS011;31511;46.176;9.874;2024-03-08T04:50:52;13.80;;;10.40;;
40176;SDS011;31511;46.176;9.874;2024-03-08T04:59:06;15.57;;;10.68;;
40176;SDS011;31511;46.176;9.874;2024-03-08T05:01:52;18.00;;;10.15;;
40176;SDS011;31511;46.176;9.874;2024-03-08T05:07:21;14.90;;;8.65;;
40176;SDS011;31511;46.176;9.874;2024-03-08T05:12:50;14.45;;;9.60;;
40176;SDS011;31511;46.176;9.874;2024-03-08T05:15:35;18.10;;;11.40;;
40176;SDS011;31511;46.176;9.874;2024-03-08T05:18:20;18.13;;;9.60;;
40176;SDS011;31511;46.176;9.874;2024-03-08T05:21:05;16.42;;;11.18;;
40176;SDS011;31511;46.176;9.874;2024-03-08T05:23:50;18.10;;;9.93;;
40176;SDS011;31511;46.176;9.874;2024-03-08T05:29:21;16.95;;;10.20;;
40176;SDS011;31511;46.176;9.874;2024-03-08T05:32:06;12.35;;;8.85;;
40176;SDS011;31511;46.176;9.874;2024-03-08T05:34:51;15.40;;;10.38;;
40176;SDS011;31511;46.176;9.874;2024-03-08T05:37:35;15.65;;;10.13;;
40176;SDS011;31511;46.176;9.874;2024-03-08T05:43:05;13.88;;;8.98;;
40176;SDS011;31511;46.176;9.874;2024-03-08T05:48:34;13.82;;;8.48;;
40176;SDS011;31511;46.176;9.874;2024-03-08T05:51:18;21.63;;;9.23;;
40176;SDS011;31511;46.176;9.874;2024-03-08T05:54:05;15.07;;;9.38;;
40176;SDS011;31511;46.176;9.874;2024-03-08T05:56:50;17.98;;;9.65;;
40176;SDS011;31511;46.176;9.874;2024-03-08T05:59:36;16.63;;;9.35;;
40176;SDS011;31511;46.176;9.874;2024-03-08T06:05:07;13.68;;;9.65;;
40176;SDS011;31511;46.176;9.874;2024-03-08T06:07:52;14.45;;;9.98;;
40176;SDS011;31511;46.176;9.874;2024-03-08T06:10:37;17.48;;;10.00;;
40176;SDS011;31511;46.176;9.874;2024-03-08T06:13:23;16.38;;;9.27;;
40176;SDS011;31511;46.176;9.874;2024-03-08T06:18:52;13.23;;;7.82;;
40176;SDS011;31511;46.176;9.874;2024-03-08T06:21:39;10.38;;;5.65;;
40176;SDS011;31511;46.176;9.874;2024-03-08T06:24:24;17.60;;;8.93;;
40176;SDS011;31511;46.176;9.874;2024-03-08T06:27:08;15.60;;;8.65;;
40176;SDS011;31511;46.176;9.874;2024-03-08T06:32:38;13.23;;;7.68;;
40176;SDS011;31511;46.176;9.874;2024-03-08T06:38:07;17.25;;;7.82;;
40176;SDS011;31511;46.176;9.874;2024-03-08T06:40:52;13.38;;;8.60;;
40176;SDS011;31511;46.176;9.874;2024-03-08T06:43:36;17.55;;;10.32;;
40176;SDS011;31511;46.176;9.874;2024-03-08T06:49:06;13.43;;;9.02;;
40176;SDS011;31511;46.176;9.874;2024-03-08T06:51:51;14.90;;;9.57;;
40176;SDS011;31511;46.176;9.874;2024-03-08T06:54:36;15.05;;;8.77;;
40176;SDS011;31511;46.176;9.874;2024-03-08T06:57:20;11.80;;;7.47;;
40176;SDS011;31511;46.176;9.874;2024-03-08T07:02:52;15.32;;;9.00;;
40176;SDS011;31511;46.176;9.874;2024-03-08T07:08:23;14.82;;;8.68;;
40176;SDS011;31511;46.176;9.874;2024-03-08T07:13:52;11.77;;;7.78;;
40176;SDS011;31511;46.176;9.874;2024-03-08T07:16:37;17.98;;;8.27;;
40176;SDS011;31511;46.176;9.874;2024-03-08T07:19:23;15.30;;;10.02;;
40176;SDS011;31511;46.176;9.874;2024-03-08T07:22:07;17.42;;;10.45;;
40176;SDS011;31511;46.176;9.874;2024-03-08T07:27:59;21.77;;;12.10;;
40176;SDS011;31511;46.176;9.874;2024-03-08T07:30:44;16.05;;;9.35;;
40176;SDS011;31511;46.176;9.874;2024-03-08T07:33:28;17.17;;;10.30;;
40176;SDS011;31511;46.176;9.874;2024-03-08T07:36:14;18.25;;;10.23;;
40176;SDS011;31511;46.176;9.874;2024-03-08T07:38:59;15.00;;;9.77;;
40176;SDS011;31511;46.176;9.874;2024-03-08T07:44:28;12.13;;;8.25;;
40176;SDS011;31511;46.176;9.874;2024-03-08T07:47:14;14.23;;;8.10;;
40176;SDS011;31511;46.176;9.874;2024-03-08T07:50:01;16.45;;;9.73;;
40176;SDS011;31511;46.176;9.874;2024-03-08T07:55:30;11.77;;;7.85;;
40176;SDS011;31511;46.176;9.874;2024-03-08T07:58:15;10.45;;;8.25;;
40176;SDS011;31511;46.176;9.874;2024-03-08T08:01:00;15.85;;;9.82;;
40176;SDS011;31511;46.176;9.874;2024-03-08T08:03:45;18.13;;;10.30;;
40176;SDS011;31511;46.176;9.874;2024-03-08T08:06:31;24.27;;;12.13;;
40176;SDS011;31511;46.176;9.874;2024-03-08T08:09:17;21.88;;;12.10;;
40176;SDS011;31511;46.176;9.874;2024-03-08T08:12:11;14.30;;;10.85;;
40176;SDS011;31511;46.176;9.874;2024-03-08T08:17:41;18.05;;;11.68;;
40176;SDS011;31511;46.176;9.874;2024-03-08T08:20:26;17.95;;;10.55;;
40176;SDS011;31511;46.176;9.874;2024-03-08T08:23:12;17.83;;;12.32;;
40176;SDS011;31511;46.176;9.874;2024-03-08T08:28:42;27.20;;;14.35;;
40176;SDS011;31511;46.176;9.874;2024-03-08T08:31:27;24.30;;;16.98;;
40176;SDS011;31511;46.176;9.874;2024-03-08T08:36:57;27.75;;;16.30;;
40176;SDS011;31511;46.176;9.874;2024-03-08T08:39:42;25.33;;;17.45;;
40176;SDS011;31511;46.176;9.874;2024-03-08T08:42:27;26.30;;;16.33;;
40176;SDS011;31511;46.176;9.874;2024-03-08T08:45:12;30.20;;;18.23;;
40176;SDS011;31511;46.176;9.874;2024-03-08T08:47:57;29.17;;;17.75;;
40176;SDS011;31511;46.176;9.874;2024-03-08T08:50:43;28.45;;;17.80;;
40176;SDS011;31511;46.176;9.874;2024-03-08T08:53:28;26.88;;;17.98;;
40176;SDS011;31511;46.176;9.874;2024-03-08T08:56:13;21.98;;;16.88;;
40176;SDS011;31511;46.176;9.874;2024-03-08T09:01:42;32.15;;;17.58;;
40176;SDS011;31511;46.176;9.874;2024-03-08T09:04:26;27.80;;;16.08;;
40176;SDS011;31511;46.176;9.874;2024-03-08T09:07:12;27.30;;;16.15;;
40176;SDS011;31511;46.176;9.874;2024-03-08T09:09:57;31.67;;;16.33;;
40176;SDS011;31511;46.176;9.874;2024-03-08T09:12:41;27.45;;;18.33;;
40176;SDS011;31511;46.176;9.874;2024-03-08T09:15:26;27.80;;;18.67;;
40176;SDS011;31511;46.176;9.874;2024-03-08T09:18:11;24.20;;;16.40;;
40176;SDS011;31511;46.176;9.874;2024-03-08T09:20:56;29.33;;;17.92;;
40176;SDS011;31511;46.176;9.874;2024-03-08T09:26:28;27.52;;;15.98;;
40176;SDS011;31511;46.176;9.874;2024-03-08T09:31:57;24.63;;;16.65;;
40176;SDS011;31511;46.176;9.874;2024-03-08T09:37:26;26.15;;;16.23;;
40176;SDS011;31511;46.176;9.874;2024-03-08T09:40:11;25.67;;;17.50;;
40176;SDS011;31511;46.176;9.874;2024-03-08T09:42:59;23.55;;;15.88;;
40176;SDS011;31511;46.176;9.874;2024-03-08T09:45:44;28.77;;;17.40;;
40176;SDS011;31511;46.176;9.874;2024-03-08T09:48:29;30.25;;;17.83;;
40176;SDS011;31511;46.176;9.874;2024-03-08T09:53:59;24.20;;;16.33;;
40176;SDS011;31511;46.176;9.874;2024-03-08T09:56:43;28.17;;;16.35;;
40176;SDS011;31511;46.176;9.874;2024-03-08T09:59:30;26.42;;;17.52;;
40176;SDS011;31511;46.176;9.874;2024-03-08T10:02:20;29.42;;;18.85;;
40176;SDS011;31511;46.176;9.874;2024-03-08T10:07:50;25.17;;;17.27;;
40176;SDS011;31511;46.176;9.874;2024-03-08T10:10:34;25.25;;;18.38;;
40176;SDS011;31511;46.176;9.874;2024-03-08T10:13:19;26.40;;;16.75;;
40176;SDS011;31511;46.176;9.874;2024-03-08T10:16:05;27.73;;;15.93;;
40176;SDS011;31511;46.176;9.874;2024-03-08T10:18:50;25.88;;;17.90;;
40176;SDS011;31511;46.176;9.874;2024-03-08T10:21:46;22.05;;;14.30;;
40176;SDS011;31511;46.176;9.874;2024-03-08T10:24:31;26.10;;;15.82;;
40176;SDS011;31511;46.176;9.874;2024-03-08T10:27:17;19.33;;;13.43;;
40176;SDS011;31511;46.176;9.874;2024-03-08T10:30:02;26.70;;;16.92;;
40176;SDS011;31511;46.176;9.874;2024-03-08T10:32:47;27.33;;;18.35;;
40176;SDS011;31511;46.176;9.874;2024-03-08T10:35:32;22.17;;;16.65;;
40176;SDS011;31511;46.176;9.874;2024-03-08T10:38:18;23.13;;;16.50;;
40176;SDS011;31511;46.176;9.874;2024-03-08T10:41:04;21.20;;;15.10;;
40176;SDS011;31511;46.176;9.874;2024-03-08T10:49:39;26.77;;;15.32;;
40176;SDS011;31511;46.176;9.874;2024-03-08T10:52:26;20.58;;;14.85;;
40176;SDS011;31511;46.176;9.874;2024-03-08T10:55:11;22.27;;;14.27;;
40176;SDS011;31511;46.176;9.874;2024-03-08T10:57:57;17.05;;;13.25;;
40176;SDS011;31511;46.176;9.874;2024-03-08T11:00:41;25.33;;;15.77;;
40176;SDS011;31511;46.176;9.874;2024-03-08T11:06:29;20.40;;;12.75;;
40176;SDS011;31511;46.176;9.874;2024-03-08T11:09:31;18.00;;;13.40;;
40176;SDS011;31511;46.176;9.874;2024-03-08T11:12:26;21.92;;;15.27;;
40176;SDS011;31511;46.176;9.874;2024-03-08T11:15:16;21.30;;;14.27;;
40176;SDS011;31511;46.176;9.874;2024-03-08T11:18:03;19.77;;;12.25;;
40176;SDS011;31511;46.176;9.874;2024-03-08T11:20:54;15.90;;;11.98;;
40176;SDS011;31511;46.176;9.874;2024-03-08T11:23:39;22.17;;;13.70;;
40176;SDS011;31511;46.176;9.874;2024-03-08T11:26:27;20.30;;;13.90;;
40176;SDS011;31511;46.176;9.874;2024-03-08T11:32:12;21.17;;;13.80;;
40176;SDS011;31511;46.176;9.874;2024-03-08T11:34:58;21.08;;;13.73;;
40176;SDS011;31511;46.176;9.874;2024-03-08T11:37:43;22.60;;;14.70;;
40176;SDS011;31511;46.176;9.874;2024-03-08T11:40:29;20.77;;;15.65;;
40176;SDS011;31511;46.176;9.874;2024-03-08T11:43:13;19.05;;;13.48;;
40176;SDS011;31511;46.176;9.874;2024-03-08T11:46:07;25.95;;;14.77;;
40176;SDS011;31511;46.176;9.874;2024-03-08T11:51:37;25.23;;;13.00;;
40176;SDS011;31511;46.176;9.874;2024-03-08T11:54:22;20.23;;;12.82;;
40176;SDS011;31511;46.176;9.874;2024-03-08T11:57:06;18.92;;;13.07;;
40176;SDS011;31511;46.176;9.874;2024-03-08T11:59:53;18.65;;;13.48;;
40176;SDS011;31511;46.176;9.874;2024-03-08T12:02:40;19.17;;;13.57;;
40176;SDS011;31511;46.176;9.874;2024-03-08T12:05:26;20.08;;;12.80;;
40176;SDS011;31511;46.176;9.874;2024-03-08T12:08:11;19.65;;;12.38;;
40176;SDS011;31511;46.176;9.874;2024-03-08T12:10:57;21.02;;;12.63;;
40176;SDS011;31511;46.176;9.874;2024-03-08T12:13:44;19.48;;;12.85;;
40176;SDS011;31511;46.176;9.874;2024-03-08T12:16:33;21.17;;;12.23;;
40176;SDS011;31511;46.176;9.874;2024-03-08T12:19:18;21.05;;;11.70;;
40176;SDS011;31511;46.176;9.874;2024-03-08T12:22:09;22.80;;;11.65;;
40176;SDS011;31511;46.176;9.874;2024-03-08T12:25:04;17.27;;;11.10;;
40176;SDS011;31511;46.176;9.874;2024-03-08T12:27:50;21.65;;;13.63;;
40176;SDS011;31511;46.176;9.874;2024-03-08T12:30:44;22.10;;;12.45;;
40176;SDS011;31511;46.176;9.874;2024-03-08T12:33:29;17.85;;;11.98;;
40176;SDS011;31511;46.176;9.874;2024-03-08T12:36:15;18.63;;;11.90;;
40176;SDS011;31511;46.176;9.874;2024-03-08T12:39:00;18.80;;;12.52;;
40176;SDS011;31511;46.176;9.874;2024-03-08T12:41:45;16.88;;;11.18;;
40176;SDS011;31511;46.176;9.874;2024-03-08T12:44:30;17.98;;;11.02;;
40176;SDS011;31511;46.176;9.874;2024-03-08T12:47:15;18.95;;;12.13;;
40176;SDS011;31511;46.176;9.874;2024-03-08T12:49:59;21.33;;;11.88;;
40176;SDS011;31511;46.176;9.874;2024-03-08T12:52:44;23.85;;;11.55;;
40176;SDS011;31511;46.176;9.874;2024-03-08T12:55:29;19.75;;;10.77;;
40176;SDS011;31511;46.176;9.874;2024-03-08T13:01:00;16.10;;;9.32;;
40176;SDS011;31511;46.176;9.874;2024-03-08T13:03:44;16.08;;;10.05;;
40176;SDS011;31511;46.176;9.874;2024-03-08T13:06:30;21.15;;;10.63;;
40176;SDS011;31511;46.176;9.874;2024-03-08T13:09:14;15.60;;;9.85;;
40176;SDS011;31511;46.176;9.874;2024-03-08T13:11:59;17.85;;;9.55;;
40176;SDS011;31511;46.176;9.874;2024-03-08T13:14:44;17.90;;;11.73;;
40176;SDS011;31511;46.176;9.874;2024-03-08T13:20:13;16.45;;;9.93;;
40176;SDS011;31511;46.176;9.874;2024-03-08T13:23:03;14.00;;;9.38;;
40176;SDS011;31511;46.176;9.874;2024-03-08T13:25:48;14.63;;;9.20;;
40176;SDS011;31511;46.176;9.874;2024-03-08T13:28:33;14.20;;;9.25;;
40176;SDS011;31511;46.176;9.874;2024-03-08T13:31:21;13.20;;;8.73;;
40176;SDS011;31511;46.176;9.874;2024-03-08T13:34:05;14.57;;;8.25;;
40176;SDS011;31511;46.176;9.874;2024-03-08T13:39:36;14.25;;;9.23;;
40176;SDS011;31511;46.176;9.874;2024-03-08T13:42:24;16.52;;;9.38;;
40176;SDS011;31511;46.176;9.874;2024-03-08T13:47:57;15.52;;;9.63;;
40176;SDS011;31511;46.176;9.874;2024-03-08T13:50:42;14.73;;;10.02;;
40176;SDS011;31511;46.176;9.874;2024-03-08T13:56:12;16.23;;;9.35;;
40176;SDS011;31511;46.176;9.874;2024-03-08T13:58:59;14.52;;;8.80;;
40176;SDS011;31511;46.176;9.874;2024-03-08T14:04:28;16.75;;;8.88;;
40176;SDS011;31511;46.176;9.874;2024-03-08T14:07:13;15.98;;;9.15;;
40176;SDS011;31511;46.176;9.874;2024-03-08T14:09:58;20.20;;;10.32;;
40176;SDS011;31511;46.176;9.874;2024-03-08T14:15:27;16.92;;;9.68;;
40176;SDS011;31511;46.176;9.874;2024-03-08T14:18:13;18.63;;;9.88;;
40176;SDS011;31511;46.176;9.874;2024-03-08T14:20:59;12.63;;;8.50;;
40176;SDS011;31511;46.176;9.874;2024-03-08T14:23:43;21.33;;;11.02;;
40176;SDS011;31511;46.176;9.874;2024-03-08T14:29:13;15.52;;;10.43;;
40176;SDS011;31511;46.176;9.874;2024-03-08T14:31:57;16.70;;;10.48;;
40176;SDS011;31511;46.176;9.874;2024-03-08T14:34:43;17.05;;;9.93;;
40176;SDS011;31511;46.176;9.874;2024-03-08T14:42:59;17.48;;;9.52;;
40176;SDS011;31511;46.176;9.874;2024-03-08T14:45:44;19.20;;;9.38;;
40176;SDS011;31511;46.176;9.874;2024-03-08T14:48:31;19.98;;;10.52;;
40176;SDS011;31511;46.176;9.874;2024-03-08T14:51:15;15.88;;;8.93;;
40176;SDS011;31511;46.176;9.874;2024-03-08T14:56:45;17.40;;;10.63;;
40176;SDS011;31511;46.176;9.874;2024-03-08T14:59:29;14.65;;;9.45;;
40176;SDS011;31511;46.176;9.874;2024-03-08T15:02:14;21.05;;;10.35;;
40176;SDS011;31511;46.176;9.874;2024-03-08T15:05:01;17.10;;;10.50;;
40176;SDS011;31511;46.176;9.874;2024-03-08T15:07:52;19.88;;;9.43;;
40176;SDS011;31511;46.176;9.874;2024-03-08T15:10:40;16.20;;;10.07;;
40176;SDS011;31511;46.176;9.874;2024-03-08T15:13:24;16.27;;;9.75;;
40176;SDS011;31511;46.176;9.874;2024-03-08T15:16:17;14.02;;;10.15;;
40176;SDS011;31511;46.176;9.874;2024-03-08T15:21:49;18.85;;;11.02;;
40176;SDS011;31511;46.176;9.874;2024-03-08T15:24:34;14.57;;;9.40;;
40176;SDS011;31511;46.176;9.874;2024-03-08T15:27:18;14.88;;;9.85;;
40176;SDS011;31511;46.176;9.874;2024-03-08T15:30:04;15.48;;;9.10;;
40176;SDS011;31511;46.176;9.874;2024-03-08T15:32:52;14.88;;;9.23;;
40176;SDS011;31511;46.176;9.874;2024-03-08T15:35:41;16.00;;;8.98;;
40176;SDS011;31511;46.176;9.874;2024-03-08T15:38:30;16.23;;;9.02;;
40176;SDS011;31511;46.176;9.874;2024-03-08T15:41:15;12.93;;;8.32;;
40176;SDS011;31511;46.176;9.874;2024-03-08T15:44:01;14.07;;;8.68;;
40176;SDS011;31511;46.176;9.874;2024-03-08T15:46:46;13.38;;;8.50;;
40176;SDS011;31511;46.176;9.874;2024-03-08T15:52:15;15.65;;;10.43;;
40176;SDS011;31511;46.176;9.874;2024-03-08T15:55:00;14.50;;;9.30;;
40176;SDS011;31511;46.176;9.874;2024-03-08T15:57:46;17.52;;;10.32;;
40176;SDS011;31511;46.176;9.874;2024-03-08T16:00:31;19.05;;;11.07;;
40176;SDS011;31511;46.176;9.874;2024-03-08T16:03:29;14.75;;;9.80;;
40176;SDS011;31511;46.176;9.874;2024-03-08T16:06:13;17.55;;;10.30;;
40176;SDS011;31511;46.176;9.874;2024-03-08T16:11:43;16.13;;;9.07;;
40176;SDS011;31511;46.176;9.874;2024-03-08T16:14:30;15.27;;;10.40;;
40176;SDS011;31511;46.176;9.874;2024-03-08T16:17:14;13.35;;;8.82;;
40176;SDS011;31511;46.176;9.874;2024-03-08T16:22:44;12.02;;;9.23;;
40176;SDS011;31511;46.176;9.874;2024-03-08T16:25:29;21.80;;;9.52;;
40176;SDS011;31511;46.176;9.874;2024-03-08T16:28:14;17.25;;;10.02;;
40176;SDS011;31511;46.176;9.874;2024-03-08T16:30:58;17.20;;;9.38;;
40176;SDS011;31511;46.176;9.874;2024-03-08T16:33:43;16.35;;;9.95;;
40176;SDS011;31511;46.176;9.874;2024-03-08T16:36:28;13.82;;;9.95;;
40176;SDS011;31511;46.176;9.874;2024-03-08T16:41:57;18.60;;;9.68;;
40176;SDS011;31511;46.176;9.874;2024-03-08T16:44:42;12.20;;;8.38;;
40176;SDS011;31511;46.176;9.874;2024-03-08T16:50:11;16.63;;;9.38;;
40176;SDS011;31511;46.176;9.874;2024-03-08T16:53:00;17.02;;;9.50;;
40176;SDS011;31511;46.176;9.874;2024-03-08T16:55:45;14.93;;;9.80;;
40176;SDS011;31511;46.176;9.874;2024-03-08T16:58:34;20.40;;;11.38;;
40176;SDS011;31511;46.176;9.874;2024-03-08T17:04:04;15.55;;;10.88;;
40176;SDS011;31511;46.176;9.874;2024-03-08T17:06:50;15.70;;;10.07;;
40176;SDS011;31511;46.176;9.874;2024-03-08T17:09:37;16.00;;;10.57;;
40176;SDS011;31511;46.176;9.874;2024-03-08T17:12:21;22.38;;;15.27;;
40176;SDS011;31511;46.176;9.874;2024-03-08T17:15:08;24.33;;;15.10;;
40176;SDS011;31511;46.176;9.874;2024-03-08T17:17:55;20.08;;;13.23;;
40176;SDS011;31511;46.176;9.874;2024-03-08T17:20:43;18.00;;;11.85;;
40176;SDS011;31511;46.176;9.874;2024-03-08T17:23:27;19.50;;;11.82;;
40176;SDS011;31511;46.176;9.874;2024-03-08T17:28:57;17.10;;;11.27;;
40176;SDS011;31511;46.176;9.874;2024-03-08T17:31:41;15.10;;;11.07;;
40176;SDS011;31511;46.176;9.874;2024-03-08T17:34:28;19.50;;;10.85;;
40176;SDS011;31511;46.176;9.874;2024-03-08T17:39:58;16.80;;;11.57;;
40176;SDS011;31511;46.176;9.874;2024-03-08T17:45:28;27.10;;;13.27;;
40176;SDS011;31511;46.176;9.874;2024-03-08T17:48:12;17.45;;;10.10;;
40176;SDS011;31511;46.176;9.874;2024-03-08T17:50:59;20.63;;;12.15;;
40176;SDS011;31511;46.176;9.874;2024-03-08T17:53:45;15.82;;;10.98;;
40176;SDS011;31511;46.176;9.874;2024-03-08T17:56:32;18.63;;;12.25;;
40176;SDS011;31511;46.176;9.874;2024-03-08T17:59:17;18.17;;;11.70;;
40176;SDS011;31511;46.176;9.874;2024-03-08T18:02:02;18.45;;;12.95;;
40176;SDS011;31511;46.176;9.874;2024-03-08T18:04:49;16.08;;;11.10;;
40176;SDS011;31511;46.176;9.874;2024-03-08T18:07:34;15.45;;;11.35;;
40176;SDS011;31511;46.176;9.874;2024-03-08T18:10:18;20.98;;;13.43;;
40176;SDS011;31511;46.176;9.874;2024-03-08T18:13:04;18.85;;;12.43;;
40176;SDS011;31511;46.176;9.874;2024-03-08T18:16:02;19.40;;;11.70;;
40176;SDS011;31511;46.176;9.874;2024-03-08T18:18:46;25.38;;;13.55;;
40176;SDS011;31511;46.176;9.874;2024-03-08T18:21:34;19.33;;;11.60;;
40176;SDS011;31511;46.176;9.874;2024-03-08T18:24:20;18.00;;;11.60;;
40176;SDS011;31511;46.176;9.874;2024-03-08T18:29:50;19.98;;;14.00;;
40176;SDS011;31511;46.176;9.874;2024-03-08T18:32:35;19.98;;;12.27;;
40176;SDS011;31511;46.176;9.874;2024-03-08T18:35:20;21.35;;;11.75;;
40176;SDS011;31511;46.176;9.874;2024-03-08T18:38:08;19.95;;;13.02;;
40176;SDS011;31511;46.176;9.874;2024-03-08T18:40:52;19.23;;;12.05;;
40176;SDS011;31511;46.176;9.874;2024-03-08T18:43:37;17.23;;;11.93;;
40176;SDS011;31511;46.176;9.874;2024-03-08T18:49:06;23.85;;;12.63;;
40176;SDS011;31511;46.176;9.874;2024-03-08T18:54:38;28.92;;;14.40;;
40176;SDS011;31511;46.176;9.874;2024-03-08T18:57:24;19.15;;;13.18;;
40176;SDS011;31511;46.176;9.874;2024-03-08T19:00:14;19.25;;;12.00;;
40176;SDS011;31511;46.176;9.874;2024-03-08T19:03:05;21.00;;;13.63;;
40176;SDS011;31511;46.176;9.874;2024-03-08T19:05:54;23.83;;;13.40;;
40176;SDS011;31511;46.176;9.874;2024-03-08T19:08:38;19.67;;;12.20;;
40176;SDS011;31511;46.176;9.874;2024-03-08T19:11:26;17.95;;;12.27;;
40176;SDS011;31511;46.176;9.874;2024-03-08T19:16:56;19.48;;;12.75;;
40176;SDS011;31511;46.176;9.874;2024-03-08T19:19:40;18.15;;;12.35;;
40176;SDS011;31511;46.176;9.874;2024-03-08T19:22:26;20.67;;;12.48;;
40176;SDS011;31511;46.176;9.874;2024-03-08T19:25:12;20.95;;;12.25;;
40176;SDS011;31511;46.176;9.874;2024-03-08T19:27:58;20.83;;;12.63;;
40176;SDS011;31511;46.176;9.874;2024-03-08T19:30:43;18.60;;;12.88;;
40176;SDS011;31511;46.176;9.874;2024-03-08T19:36:13;18.20;;;11.32;;
40176;SDS011;31511;46.176;9.874;2024-03-08T19:39:01;20.63;;;12.05;;
40176;SDS011;31511;46.176;9.874;2024-03-08T19:44:31;22.00;;;13.88;;
40176;SDS011;31511;46.176;9.874;2024-03-08T19:47:16;19.88;;;12.13;;
40176;SDS011;31511;46.176;9.874;2024-03-08T19:50:01;22.67;;;13.18;;
40176;SDS011;31511;46.176;9.874;2024-03-08T19:52:46;19.25;;;12.48;;
40176;SDS011;31511;46.176;9.874;2024-03-08T19:55:31;27.92;;;13.18;;
40176;SDS011;31511;46.176;9.874;2024-03-08T19:58:16;20.73;;;14.00;;
40176;SDS011;31511;46.176;9.874;2024-03-08T20:01:02;22.75;;;12.88;;